North Haven, Connecticut
Current Conditions -  °F | °C
As of 3:53 PM on Friday 24 Oct 2014 (Local Time) from KHVN Reporting Station
Broken Clouds Broken Clouds  
Wind Chill: 57°   Ceiling: 3000
Heat Index: 57°   Visibility: 10mi
Dew Point: 43°   Wind: 15mph
Humidity: 59%   Direction: 330°NNW
Pressure: 29.76"   Gusts: 22mph
Location:  41.39°N, 72.86°W
Report Text: KHVN 241953Z 33013G19KT 10SM BKN030 14/06 A2976 RMK AO2 SLP078 T01390061
Loading
Personal Weather Stations






























Interactive Weather Map
Tropical Storm Tracking
New forecast layout! Learn more

10-Day Weather Forecast

Advertisements
Track Severe Weather on mobile